createdAt,value
2022-11-17T00:02:02.616Z,-3.31
2022-11-17T00:05:16.482Z,-2.80
2022-11-17T00:08:16.177Z,-2.65
2022-11-17T00:11:01.319Z,-2.44
2022-11-17T00:17:07.332Z,-1.95
2022-11-17T00:20:07.574Z,-1.77
2022-11-17T00:22:50.315Z,-1.50
2022-11-17T00:25:52.540Z,-1.69
2022-11-17T00:29:00.091Z,-1.71
2022-11-17T00:31:58.022Z,-1.51
2022-11-17T00:34:41.710Z,-1.55
2022-11-17T00:37:25.706Z,-1.67
2022-11-17T00:40:10.391Z,-1.62
2022-11-17T00:43:03.288Z,-1.98
2022-11-17T00:46:14.590Z,-2.15
2022-11-17T00:48:53.960Z,-2.10
2022-11-17T00:51:49.442Z,-2.00
2022-11-17T00:54:29.082Z,-2.05
2022-11-17T01:03:19.304Z,-1.81
2022-11-17T01:06:12.546Z,-1.56
2022-11-17T01:08:59.036Z,-1.51
2022-11-17T01:11:45.491Z,-1.22
2022-11-17T01:14:29.000Z,-1.42
2022-11-17T01:17:28.459Z,-1.05
2022-11-17T01:20:23.916Z,-0.87
2022-11-17T01:26:35.848Z,-0.88
2022-11-17T01:29:16.387Z,-0.25
2022-11-17T01:32:02.834Z,0.06
2022-11-17T01:34:46.328Z,0.47
2022-11-17T01:37:42.624Z,0.71
2022-11-17T01:40:23.039Z,0.77
2022-11-17T01:43:31.425Z,0.70
2022-11-17T01:46:11.935Z,0.64
2022-11-17T01:48:56.536Z,0.38
2022-11-17T01:51:40.401Z,-0.04
2022-11-17T01:54:37.457Z,-0.81
2022-11-17T01:58:04.157Z,-0.92
2022-11-17T02:00:51.378Z,-0.64
2022-11-17T02:06:33.717Z,-0.18
2022-11-17T02:09:16.519Z,-0.16
2022-11-17T02:12:00.541Z,0.30
2022-11-17T02:15:01.991Z,0.24
2022-11-17T02:20:58.254Z,0.72
2022-11-17T02:24:19.205Z,0.76
2022-11-17T02:27:32.680Z,0.76
2022-11-17T02:30:25.302Z,0.61
2022-11-17T02:36:28.947Z,0.65
2022-11-17T02:39:35.670Z,0.56
2022-11-17T02:42:30.903Z,0.49
2022-11-17T02:45:32.954Z,0.40
2022-11-17T02:48:18.586Z,0.75
2022-11-17T02:51:16.670Z,0.82
2022-11-17T02:57:17.446Z,0.70
2022-11-17T02:59:56.419Z,0.59
2022-11-17T03:03:16.165Z,0.46
2022-11-17T03:06:28.513Z,0.45
2022-11-17T03:09:14.371Z,0.10
2022-11-17T03:12:01.099Z,0.39
2022-11-17T03:15:02.458Z,0.36
2022-11-17T03:18:02.753Z,0.33
2022-11-17T03:20:51.579Z,0.19
2022-11-17T03:23:49.858Z,0.51
2022-11-17T03:29:45.779Z,0.66
2022-11-17T03:32:25.169Z,0.78
2022-11-17T03:35:19.593Z,0.76
2022-11-17T03:38:11.749Z,0.65
2022-11-17T03:41:32.044Z,0.71
2022-11-17T03:44:13.690Z,0.76
2022-11-17T03:46:50.955Z,0.67
2022-11-17T03:49:41.498Z,0.74
2022-11-17T03:52:30.807Z,0.85
2022-11-17T03:55:41.169Z,0.94
2022-11-17T03:58:36.885Z,0.95
2022-11-17T04:01:24.054Z,0.90
2022-11-17T04:04:16.919Z,1.04
2022-11-17T04:09:58.297Z,0.95
2022-11-17T04:16:03.800Z,0.40
2022-11-17T04:18:42.170Z,0.43
2022-11-17T04:21:31.236Z,0.35
2022-11-17T04:24:12.718Z,0.25
2022-11-17T04:27:27.484Z,0.16
2022-11-17T04:30:12.754Z,0.14
2022-11-17T04:33:01.542Z,-0.12
2022-11-17T04:36:02.267Z,0.01
2022-11-17T04:38:40.343Z,-0.02
2022-11-17T04:41:36.329Z,0.02
2022-11-17T04:44:22.521Z,-0.03
2022-11-17T04:46:59.540Z,-0.13
2022-11-17T04:49:48.750Z,-0.16
2022-11-17T04:52:35.723Z,-0.20
2022-11-17T04:55:24.162Z,-0.22
2022-11-17T04:58:13.513Z,-0.36
2022-11-17T05:00:52.044Z,-0.52
2022-11-17T05:03:46.484Z,-0.60
2022-11-17T05:06:37.047Z,-0.77
2022-11-17T05:09:35.467Z,-0.67
2022-11-17T05:12:29.648Z,-0.66
2022-11-17T05:15:24.452Z,-0.70
2022-11-17T05:18:10.819Z,-0.79
2022-11-17T05:20:50.152Z,-0.91
2022-11-17T05:23:58.684Z,-1.18
2022-11-17T05:26:50.257Z,-0.95
2022-11-17T05:29:33.352Z,-1.55
2022-11-17T05:32:15.022Z,-1.12
2022-11-17T05:44:02.434Z,-1.55
2022-11-17T05:46:56.141Z,-1.68
2022-11-17T05:49:40.790Z,-1.83
2022-11-17T05:55:23.662Z,-1.96
2022-11-17T06:01:32.375Z,-2.06
2022-11-17T06:04:14.378Z,-2.08
2022-11-17T06:06:54.578Z,-2.09
2022-11-17T06:10:04.535Z,-2.13
2022-11-17T06:12:54.886Z,-2.09
2022-11-17T06:16:09.065Z,-2.09
2022-11-17T06:19:23.852Z,-2.15
2022-11-17T06:22:12.543Z,-2.34
2022-11-17T06:25:07.738Z,-2.28
2022-11-17T06:28:01.544Z,-2.85
2022-11-17T06:30:47.899Z,-2.44
2022-11-17T06:33:31.153Z,-2.48
2022-11-17T06:36:23.490Z,-2.49
2022-11-17T06:39:28.383Z,-2.53
2022-11-17T06:42:21.989Z,-3.33
2022-11-17T06:45:01.006Z,-2.51
2022-11-17T06:48:03.712Z,-2.49
2022-11-17T06:50:53.210Z,-2.50
2022-11-17T06:53:52.927Z,-2.39
2022-11-17T06:56:32.802Z,-2.35
2022-11-17T06:59:16.913Z,-2.37
2022-11-17T07:02:03.014Z,-2.36
2022-11-17T07:04:50.976Z,-2.42
2022-11-17T07:07:34.111Z,-2.45
2022-11-17T07:10:42.541Z,-2.47
2022-11-17T07:13:22.429Z,-2.45
2022-11-17T07:16:20.089Z,-2.42
2022-11-17T07:19:05.577Z,-2.34
2022-11-17T07:21:44.775Z,-2.32
2022-11-17T07:24:27.248Z,-2.30
2022-11-17T07:27:18.239Z,-2.24
2022-11-17T07:30:12.665Z,-2.26
2022-11-17T07:33:07.762Z,-2.30
2022-11-17T07:35:46.365Z,-2.29
2022-11-17T07:38:31.896Z,-2.25
2022-11-17T07:44:47.472Z,-2.40
2022-11-17T07:47:31.560Z,-2.17
2022-11-17T07:50:19.921Z,-2.17
2022-11-17T07:53:05.584Z,-2.23
2022-11-17T07:55:44.184Z,-2.30
2022-11-17T08:02:08.793Z,-2.45
2022-11-17T08:05:10.209Z,-2.62
2022-11-17T08:07:56.898Z,-2.65
2022-11-17T08:11:20.491Z,-2.73
2022-11-17T08:14:18.051Z,-2.70
2022-11-17T08:17:03.522Z,-2.69
2022-11-17T08:19:56.087Z,-2.69
2022-11-17T08:22:44.947Z,-2.74
2022-11-17T08:25:28.402Z,-2.72
2022-11-17T08:28:05.905Z,-2.72
2022-11-17T08:30:56.381Z,-2.75
2022-11-17T08:36:27.776Z,-2.89
2022-11-17T08:39:08.176Z,-2.98
2022-11-17T08:42:02.633Z,-3.04
2022-11-17T08:45:14.456Z,-2.98
2022-11-17T08:48:12.543Z,-3.05
2022-11-17T08:51:20.047Z,-3.08
2022-11-17T08:54:07.239Z,-3.22
2022-11-17T08:56:52.362Z,-3.40
2022-11-17T08:59:40.053Z,-3.55
2022-11-17T09:02:41.808Z,-3.68
2022-11-17T09:05:27.898Z,-3.78
2022-11-17T09:11:19.475Z,-4.01
2022-11-17T09:13:58.252Z,-4.06
2022-11-17T09:16:35.667Z,-4.09
2022-11-17T09:19:31.887Z,-4.15
2022-11-17T09:22:06.654Z,-4.24
2022-11-17T09:25:01.321Z,-4.33
2022-11-17T09:30:34.632Z,-4.56
2022-11-17T09:33:17.685Z,-4.72
2022-11-17T09:36:17.301Z,-4.87
2022-11-17T09:39:03.495Z,-5.03
2022-11-17T09:41:59.216Z,-5.16
2022-11-17T09:44:58.082Z,-5.26
2022-11-17T09:48:18.427Z,-5.28
2022-11-17T09:51:06.824Z,-5.32
2022-11-17T09:56:40.141Z,-5.43
2022-11-17T09:59:45.220Z,-5.42
2022-11-17T10:02:57.446Z,-5.47
2022-11-17T10:05:46.570Z,-5.52
2022-11-17T10:08:41.883Z,-5.61
2022-11-17T10:11:44.351Z,-5.67
2022-11-17T10:14:53.955Z,-5.79
2022-11-17T10:17:44.299Z,-5.88
2022-11-17T10:20:30.083Z,-6.23
2022-11-17T10:23:15.745Z,-5.76
2022-11-17T10:29:47.357Z,-5.81
2022-11-17T10:32:26.960Z,-5.90
2022-11-17T10:35:34.841Z,-6.20
2022-11-17T10:38:23.644Z,-6.15
2022-11-17T10:41:05.352Z,-6.37
2022-11-17T10:44:19.006Z,-6.26
2022-11-17T10:50:48.059Z,-6.47
2022-11-17T10:53:56.831Z,-6.64
2022-11-17T10:56:49.739Z,-6.73
2022-11-17T10:59:43.636Z,-6.76
2022-11-17T11:02:47.002Z,-6.87
2022-11-17T11:05:42.428Z,-6.87
2022-11-17T11:08:28.608Z,-6.90
2022-11-17T11:11:23.852Z,-7.07
2022-11-17T11:14:21.709Z,-7.05
2022-11-17T11:17:10.939Z,-7.13
2022-11-17T11:23:35.719Z,-7.07
2022-11-17T11:26:37.648Z,-7.13
2022-11-17T11:33:17.979Z,-7.00
2022-11-17T11:36:29.500Z,-7.09
2022-11-17T11:39:15.149Z,-7.02
2022-11-17T11:42:08.107Z,-7.10
2022-11-17T11:45:18.861Z,-7.11
2022-11-17T11:48:31.927Z,-7.21
2022-11-17T11:54:40.109Z,-7.02
2022-11-17T12:00:37.029Z,-6.88
2022-11-17T12:03:54.879Z,-6.97
2022-11-17T12:06:48.728Z,-6.98
2022-11-17T12:09:53.833Z,-7.03
2022-11-17T12:12:46.495Z,-7.03
2022-11-17T12:19:11.880Z,-6.88
2022-11-17T12:21:58.796Z,-6.97
2022-11-17T12:24:52.196Z,-7.02
2022-11-17T12:28:06.711Z,-7.05
2022-11-17T12:31:24.013Z,-7.16
2022-11-17T12:37:44.893Z,-7.46
2022-11-17T12:40:50.276Z,-7.90
2022-11-17T12:43:46.556Z,-7.66
2022-11-17T12:50:06.419Z,-7.78
2022-11-17T13:00:33.734Z,-7.85
2022-11-17T13:03:21.592Z,-7.95
2022-11-17T13:09:47.784Z,-8.20
2022-11-17T13:12:42.270Z,-8.06
2022-11-17T13:15:41.836Z,-8.09
2022-11-17T13:18:39.304Z,-8.05
2022-11-17T13:21:49.429Z,-7.94
2022-11-17T13:24:33.227Z,-7.73
2022-11-17T13:27:09.995Z,-8.29
2022-11-17T13:29:48.058Z,-8.09
2022-11-17T13:32:37.664Z,-8.18
2022-11-17T13:35:36.442Z,-8.30
2022-11-17T13:38:22.138Z,-8.29
2022-11-17T13:41:20.496Z,-8.44
2022-11-17T13:44:02.444Z,-8.57
2022-11-17T13:46:56.250Z,-8.84
2022-11-17T13:50:01.816Z,-8.42
2022-11-17T13:52:56.237Z,-8.39
2022-11-17T13:55:34.054Z,-8.44
2022-11-17T13:58:34.549Z,-8.57
2022-11-17T14:04:47.056Z,-8.64
2022-11-17T14:07:46.499Z,-9.59
2022-11-17T14:10:43.527Z,-9.01
2022-11-17T14:13:37.193Z,-8.66
2022-11-17T14:20:06.477Z,-9.06
2022-11-17T14:22:48.897Z,-8.77
2022-11-17T14:25:55.129Z,-8.95
2022-11-17T14:28:34.431Z,-9.31
2022-11-17T14:31:17.213Z,-9.34
2022-11-17T14:33:59.002Z,-9.22
2022-11-17T14:36:46.452Z,-9.26
2022-11-17T14:39:31.544Z,-9.24
2022-11-17T14:42:51.958Z,-9.28
2022-11-17T14:45:37.309Z,-9.25
2022-11-17T14:51:26.246Z,-9.35
2022-11-17T14:53:59.674Z,-9.53
2022-11-17T14:56:42.469Z,-9.54
2022-11-17T14:59:29.330Z,-9.50
2022-11-17T15:02:19.359Z,-9.41
2022-11-17T15:04:59.232Z,-9.38
2022-11-17T15:07:44.698Z,-9.42
2022-11-17T15:10:26.603Z,-9.49
2022-11-17T15:13:20.872Z,-9.38
2022-11-17T15:16:07.654Z,-9.49
2022-11-17T15:18:54.369Z,-9.49
2022-11-17T15:21:41.629Z,-9.58
2022-11-17T15:24:29.806Z,-9.66
2022-11-17T15:27:29.246Z,-9.74
2022-11-17T15:30:09.315Z,-9.78
2022-11-17T15:32:46.648Z,-9.71
2022-11-17T15:35:48.980Z,-9.64
2022-11-17T15:38:37.147Z,-9.55
2022-11-17T15:41:48.785Z,-9.55
2022-11-17T15:44:33.586Z,-9.59
2022-11-17T15:47:36.059Z,-9.60
2022-11-17T15:50:30.860Z,-9.68
2022-11-17T15:53:16.542Z,-9.44
2022-11-17T15:56:04.937Z,-9.28
2022-11-17T15:58:43.262Z,-9.20
2022-11-17T16:01:53.076Z,-9.35
2022-11-17T16:04:40.322Z,-9.36
2022-11-17T16:07:17.903Z,-9.36
2022-11-17T16:12:50.456Z,-9.36
2022-11-17T16:15:49.750Z,-9.38
2022-11-17T16:18:31.822Z,-9.54
2022-11-17T16:24:12.957Z,-9.88
2022-11-17T16:27:13.700Z,-9.93
2022-11-17T16:30:15.329Z,-9.85
2022-11-17T16:33:05.057Z,-9.84
2022-11-17T16:38:39.607Z,-9.85
2022-11-17T16:41:30.322Z,-9.89
2022-11-17T16:44:23.725Z,-9.87
2022-11-17T16:46:58.968Z,-9.78
2022-11-17T16:49:52.054Z,-9.69
2022-11-17T16:52:33.433Z,-9.67
2022-11-17T16:55:15.575Z,-9.89
2022-11-17T16:58:16.299Z,-10.26
2022-11-17T17:00:56.003Z,-10.50
2022-11-17T17:04:08.795Z,-10.53
2022-11-17T17:06:48.924Z,-10.54
2022-11-17T17:09:34.835Z,-10.58
2022-11-17T17:12:19.887Z,-10.54
2022-11-17T17:15:30.445Z,-10.54
2022-11-17T17:18:25.813Z,-10.58
2022-11-17T17:21:21.841Z,-10.48
2022-11-17T17:23:58.884Z,-10.42
2022-11-17T17:27:01.090Z,-10.12
2022-11-17T17:32:55.472Z,-10.06
2022-11-17T17:35:37.924Z,-9.94
2022-11-17T17:38:31.022Z,-9.86
2022-11-17T17:41:35.294Z,-9.91
2022-11-17T17:44:34.673Z,-9.87
2022-11-17T17:47:23.161Z,-9.78
2022-11-17T17:50:18.199Z,-9.64
2022-11-17T17:53:33.071Z,-9.40
2022-11-17T17:56:11.185Z,-9.21
2022-11-17T17:58:56.545Z,-8.91
2022-11-17T18:01:46.389Z,-8.66
2022-11-17T18:04:32.705Z,-8.56
2022-11-17T18:07:13.569Z,-8.19
2022-11-17T18:10:00.424Z,-8.20
2022-11-17T18:12:38.474Z,-8.18
2022-11-17T18:15:26.356Z,-8.35
2022-11-17T18:18:11.802Z,-8.35
2022-11-17T18:20:50.013Z,-8.44
2022-11-17T18:23:44.813Z,-8.42
2022-11-17T18:26:33.592Z,-8.29
2022-11-17T18:29:09.798Z,-8.08
2022-11-17T18:31:47.527Z,-7.89
2022-11-17T18:34:33.782Z,-7.77
2022-11-17T18:37:15.574Z,-7.65
2022-11-17T18:39:49.446Z,-7.56
2022-11-17T18:42:36.129Z,-7.55
2022-11-17T18:48:19.261Z,-7.56
2022-11-17T18:51:20.553Z,-7.62
2022-11-17T18:54:25.831Z,-7.54
2022-11-17T18:57:09.893Z,-7.43
2022-11-17T19:00:05.497Z,-7.47
2022-11-17T19:02:52.094Z,-7.50
2022-11-17T19:05:28.809Z,-7.66
2022-11-17T19:08:22.847Z,-7.73
2022-11-17T19:11:09.509Z,-7.81
2022-11-17T19:14:03.994Z,-8.13
2022-11-17T19:17:02.066Z,-7.73
2022-11-17T19:19:53.090Z,-7.58
2022-11-17T19:22:47.839Z,-7.45
2022-11-17T19:25:41.531Z,-7.35
2022-11-17T19:28:47.922Z,-7.20
2022-11-17T19:31:36.396Z,-7.02
2022-11-17T19:34:25.646Z,-6.98
2022-11-17T19:37:12.060Z,-6.84
2022-11-17T19:39:59.808Z,-6.86
2022-11-17T19:42:49.080Z,-6.95
2022-11-17T19:45:33.707Z,-6.81
2022-11-17T19:48:28.148Z,-6.74
2022-11-17T19:51:23.091Z,-7.66
2022-11-17T19:54:16.312Z,-6.63
2022-11-17T19:57:04.245Z,-6.63
2022-11-17T20:00:00.227Z,-6.72
2022-11-17T20:02:59.091Z,-6.74
2022-11-17T20:05:51.175Z,-6.67
2022-11-17T20:08:34.672Z,-6.65
2022-11-17T20:11:28.833Z,-6.57
2022-11-17T20:14:05.877Z,-6.62
2022-11-17T20:16:54.729Z,-6.58
2022-11-17T20:22:43.405Z,-6.56
2022-11-17T20:25:37.342Z,-6.56
2022-11-17T20:28:33.379Z,-6.51
2022-11-17T20:32:02.693Z,-6.45
2022-11-17T20:34:38.930Z,-6.51
2022-11-17T20:37:32.122Z,-6.53
2022-11-17T20:40:12.767Z,-6.46
2022-11-17T20:42:49.848Z,-6.39
2022-11-17T20:45:44.756Z,-6.31
2022-11-17T20:48:22.402Z,-6.25
2022-11-17T20:51:42.704Z,-6.29
2022-11-17T20:54:29.969Z,-6.18
2022-11-17T20:57:14.410Z,-6.11
2022-11-17T21:00:08.533Z,-6.26
2022-11-17T21:02:56.768Z,-6.29
2022-11-17T21:05:55.545Z,-6.29
2022-11-17T21:08:57.374Z,-6.28
2022-11-17T21:12:11.037Z,-6.08
2022-11-17T21:18:35.366Z,-5.80
2022-11-17T21:21:23.866Z,-5.77
2022-11-17T21:24:09.703Z,-5.68
2022-11-17T21:26:53.927Z,-5.72
2022-11-17T21:29:51.083Z,-5.75
2022-11-17T21:32:36.678Z,-5.71
2022-11-17T21:35:23.054Z,-5.77
2022-11-17T21:40:57.989Z,-5.80
2022-11-17T21:46:38.063Z,-6.01
2022-11-17T21:49:30.740Z,-5.88
2022-11-17T21:52:11.606Z,-5.84
2022-11-17T21:55:11.637Z,-5.85
2022-11-17T21:57:59.532Z,-5.87
2022-11-17T22:00:40.780Z,-6.02
2022-11-17T22:03:20.383Z,-6.00
2022-11-17T22:09:28.966Z,-5.91
2022-11-17T22:12:17.006Z,-5.87
2022-11-17T22:15:00.062Z,-5.67
2022-11-17T22:17:44.136Z,-5.44
2022-11-17T22:20:52.082Z,-5.28
2022-11-17T22:23:39.002Z,-5.07
2022-11-17T22:26:17.659Z,-5.16
2022-11-17T22:29:11.296Z,-5.28
2022-11-17T22:34:51.285Z,-4.92
2022-11-17T22:37:43.027Z,-4.92
2022-11-17T22:43:35.680Z,-4.85
2022-11-17T22:46:20.392Z,-4.76
2022-11-17T22:49:01.807Z,-5.07
2022-11-17T22:52:04.840Z,-4.77
2022-11-17T22:57:38.004Z,-4.68
2022-11-17T23:00:27.028Z,-4.56
2022-11-17T23:03:09.307Z,-4.59
2022-11-17T23:05:53.579Z,-4.78
2022-11-17T23:08:43.024Z,-4.67
2022-11-17T23:11:37.642Z,-4.88
2022-11-17T23:14:33.049Z,-4.93
2022-11-17T23:17:30.132Z,-4.59
2022-11-17T23:20:16.223Z,-4.57
2022-11-17T23:23:03.360Z,-4.64
2022-11-17T23:25:46.524Z,-4.45
2022-11-17T23:28:30.195Z,-4.34
2022-11-17T23:31:16.358Z,-4.30
2022-11-17T23:33:57.329Z,-4.01
2022-11-17T23:36:41.714Z,-4.06
2022-11-17T23:39:21.838Z,-3.98
2022-11-17T23:41:59.868Z,-3.76
2022-11-17T23:44:44.990Z,-3.62
2022-11-17T23:47:33.383Z,-3.39
2022-11-17T23:50:29.966Z,-3.19
2022-11-17T23:53:11.569Z,-3.04
2022-11-17T23:56:00.984Z,-3.03
2022-11-17T23:58:38.285Z,-2.80
